Flight Track Log - Related Links

Times and Time Zones

All times are in EDT time to prevent confusion due to time zone crossing. See the CTL15 flight status page for this flight to view local times or setup timezone preferences in your user account.

Time Position Orientation Groundspeed Altitude Reporting Facility
EDT Latitude Longitude Course Direction KTS MPH feet Rate Location/Type
Mon 08:50:59 PM 41.5525 -81.6653 18° North 108 124 2,900  Level Cleveland Center
Mon 08:52:06 PM 41.5756 -81.6628 North 74 85 4,600 1,475 Climbing Cleveland Center
Mon 08:53:01 PM 41.5628 -81.6767 219° Southwest 109 125 5,900 1,279 Climbing Cleveland Center
Mon 08:54:08 PM 41.5317 -81.6789 183° South 101 116 7,200 984 Climbing Cleveland Center
Mon 08:55:09 PM 41.5022 -81.6950 202° Southwest 107 123 8,000 378 Climbing Cleveland Center
Mon 08:56:15 PM 41.4683 -81.7386 224° Southwest 168 193 8,000 52 Level Cleveland Center
Mon 08:57:04 PM 41.4411 -81.7714 222° Southwest 169 194 8,100  Climbing Cleveland Center
Mon 08:58:11 PM 41.4050 -81.8233 227° Southwest 174 200 8,000 -47 Descending Cleveland Center
Mon 08:59:11 PM 41.3733 -81.8669 226° Southwest 170 196 8,000  Level Cleveland Center
Mon 09:00:12 PM 41.3372 -81.9133 224° Southwest 166 191 8,000 49 Level Cleveland Center
Mon 09:01:13 PM 41.3033 -81.9569 224° Southwest 167 192 8,100 -52 Climbing Cleveland Center
Mon 09:02:08 PM 41.2739 -81.9950 224° Southwest 166 191 7,900 -31 Descending Cleveland Center
Mon 09:04:29 PM 41.2014 -82.0933 226° Southwest 165 190 8,000 30 Climbing Indianapolis Center
Mon 09:05:30 PM 41.1703 -82.1392 228° Southwest 165 190 8,000 -49 Level Indianapolis Center
Mon 09:06:31 PM 41.1378 -82.1822 225° Southwest 164 189 7,900  Descending Indianapolis Center
Mon 09:07:33 PM 41.1053 -82.2253 225° Southwest 163 188 8,000 98 Climbing Indianapolis Center
Mon 09:08:34 PM 41.0736 -82.2683 226° Southwest 163 188 8,100  Climbing Indianapolis Center
Mon 09:09:35 PM 41.0400 -82.3139 226° Southwest 169 194 8,000 -49 Descending Indianapolis Center
Mon 09:10:37 PM 41.0053 -82.3578 224° Southwest 171 197 8,000  Level Indianapolis Center
Mon 09:11:38 PM 40.9722 -82.4019 225° Southwest 168 193 8,000  Level Indianapolis Center
Mon 09:12:39 PM 40.9381 -82.4464 225° Southwest 170 196 8,000  Level Indianapolis Center
Mon 09:13:41 PM 40.9039 -82.4911 225° Southwest 170 196 8,000  Level Indianapolis Center
Mon 09:14:42 PM 40.8694 -82.5356 224° Southwest 172 198 8,000  Level Indianapolis Center
Mon 09:15:43 PM 40.8286 -82.5897 225° Southwest 176 203 8,000  Level Indianapolis Center
Mon 09:16:45 PM 40.7942 -82.6350 225° Southwest 174 200 8,000  Level Indianapolis Center
Mon 09:17:46 PM 40.7606 -82.6814 226° Southwest 173 199 8,000  Level Indianapolis Center
Mon 09:18:47 PM 40.7278 -82.7275 227° Southwest 171 197 8,000 49 Level Indianapolis Center
Mon 09:19:49 PM 40.6928 -82.7703 223° Southwest 171 197 8,100 98 Climbing Indianapolis Center
Mon 09:20:50 PM 40.6583 -82.8133 223° Southwest 169 194 8,200 -49 Climbing Indianapolis Center
Mon 09:21:52 PM 40.6236 -82.8586 225° Southwest 173 199 8,000 -49 Descending Indianapolis Center
Mon 09:22:53 PM 40.5903 -82.9017 224° Southwest 168 193 8,100  Climbing Indianapolis Center
Mon 09:23:54 PM 40.5564 -82.9450 224° Southwest 168 193 8,000  Descending Indianapolis Center
Mon 09:24:56 PM 40.5233 -82.9906 226° Southwest 169 194 8,100  Climbing Indianapolis Center
Mon 09:25:57 PM 40.4897 -83.0367 226° Southwest 167 192 8,000 -49 Descending Indianapolis Center
Mon 09:26:58 PM 40.4561 -83.0828 226° Southwest 172 198 8,000  Level Indianapolis Center
Mon 09:28:00 PM 40.4228 -83.1272 225° Southwest 169 194 8,000  Level Indianapolis Center
Mon 09:29:01 PM 40.3897 -83.1697 224° Southwest 166 191 8,000 49 Level Indianapolis Center
Mon 09:30:02 PM 40.3575 -83.2128 226° Southwest 165 190 8,100  Climbing Indianapolis Center
Mon 09:31:04 PM 40.3253 -83.2556 225° Southwest 164 189 8,000 -49 Descending Indianapolis Center
Mon 09:32:05 PM 40.2850 -83.3061 224° Southwest 164 189 8,000  Level Indianapolis Center
Mon 09:33:06 PM 40.2506 -83.3483 223° Southwest 167 192 8,000  Level Indianapolis Center
Mon 09:34:07 PM 40.2203 -83.3911 227° Southwest 163 188 8,000  Level Indianapolis Center
Mon 09:35:08 PM 40.1858 -83.4333 223° Southwest 166 191 8,000  Level Indianapolis Center
Mon 09:36:11 PM 40.1556 -83.4792 229° Southwest 166 191 8,000 -50 Level Indianapolis Center
Mon 09:37:09 PM 40.1228 -83.5239 226° Southwest 162 186 7,900  Descending Indianapolis Center
Mon 09:38:10 PM 40.0903 -83.5689 227° Southwest 165 190 8,000 49 Climbing Indianapolis Center
Mon 09:39:11 PM 40.0600 -83.6114 227° Southwest 163 188 8,000  Level Indianapolis Center
Mon 09:40:12 PM 40.0275 -83.6539 225° Southwest 161 185 8,000  Level Indianapolis Center
Mon 09:41:13 PM 39.9950 -83.6961 225° Southwest 163 188 8,000  Level Indianapolis Center
Mon 09:42:13 PM 39.9644 -83.7411 228° Southwest 166 191 8,000  Level Indianapolis Center
Mon 09:43:14 PM 39.9317 -83.7861 226° Southwest 162 186 8,000 49 Level Indianapolis Center
Mon 09:44:15 PM 39.9033 -83.8286 229° Southwest 162 186 8,100 -49 Climbing Indianapolis Center
Mon 09:45:16 PM 39.8706 -83.8736 227° Southwest 166 191 7,900 -47 Descending Indianapolis Center
Mon 09:46:23 PM 39.8356 -83.9206 226° Southwest 164 189 8,000 47 Climbing Indianapolis Center
Mon 09:47:23 PM 39.8028 -83.9653 226° Southwest 163 188 8,000  Level Indianapolis Center
Mon 09:48:18 PM 39.7750 -83.9997 224° Southwest 167 192 8,000 -103 Level Indianapolis Center
Mon 09:49:19 PM 39.7403 -84.0442 225° Southwest 167 192 7,800 -316 Descending Indianapolis Center
Mon 09:50:31 PM 39.7031 -84.0953 227° Southwest 174 200 7,300 -586 Descending Indianapolis Center
Mon 09:51:32 PM 39.6667 -84.1433 225° Southwest 180 207 6,500 -738 Descending Indianapolis Center
Mon 09:52:33 PM 39.6294 -84.1906 224° Southwest 183 211 5,800 -683 Descending Indianapolis Center
Mon 09:53:35 PM 39.5864 -84.2431 223° Southwest 186 214 5,100 -732 Descending Indianapolis Center
Mon 09:54:36 PM 39.5475 -84.2906 223° Southwest 185 213 4,300 -639 Descending Indianapolis Center
Mon 09:55:37 PM 39.5119 -84.3358 224° Southwest 181 208 3,800 -634 Descending Indianapolis Center
Mon 09:56:39 PM 39.4786 -84.3831 228° Southwest 178 205 3,000 -488 Descending Indianapolis Center
Mon 09:57:40 PM 39.4508 -84.4261 230° Southwest 178 205 2,800 -197 Descending Indianapolis Center
Mon 09:59:00 PM 39.3957 -84.4543 218° Southwest  Level FlightAware
Mon 10:06:00 PM 39.3500 -84.5167 229° Southwest  Level FlightAware
Mon 10:07:00 PM 39.3638 -84.5219 229° Southwest  Level Estimated
Mon 10:08:00 PM 39.3638 -84.5219 229° Southwest  Level Estimated
Mon 10:09:00 PM 39.3638 -84.5219 229° Southwest  Level Estimated
Mon 10:10:00 PM 39.3638 -84.5219 229° Southwest  Level Estimated

Login

Don't have an account? Register now (free) for customized features, flight alerts, and more!